Time;durP1;ratioP1;P1;durP2;ratioP2;P2;SDS_P1;SDS_P2;PMS_P1;PMS_P2;Temp;Humidity;BMP_temperature;BMP_pressure;BME280_temperature;BME280_humidity;BME280_pressure;Samples;Min_cycle;Max_cycle;Signal;HPM_P1;HPM_P2
2022/09/08 00:08:04;;;;;;;0.20;0.00;;;25.70;99.90;;;;;;26021234;22;20191;-71
2022/09/08 00:18:08;;;;;;;0.20;0.00;;;25.60;99.90;;;;;;26045343;22;20176;-70
2022/09/08 00:28:14;;;;;;;0.20;0.00;;;25.40;99.90;;;;;;26047076;22;20173;-70
2022/09/08 00:38:19;;;;;;;0.20;0.00;;;25.20;99.90;;;;;;26016994;22;20180;-69
2022/09/08 00:48:24;;;;;;;0.20;0.00;;;25.00;99.90;;;;;;26044765;22;20184;-70
2022/09/08 00:58:28;;;;;;;0.20;0.00;;;24.80;99.90;;;;;;26044633;22;20183;-70
2022/09/08 01:19:09;;;;;;;0.20;0.00;;;24.50;99.90;;;;;;26018346;22;20190;-70
2022/09/08 01:29:17;;;;;;;0.20;0.00;;;24.30;99.90;;;;;;26043685;22;20144;-70
2022/09/08 01:39:21;;;;;;;0.20;0.00;;;23.90;99.90;;;;;;26043977;22;20195;-69
2022/09/08 01:49:26;;;;;;;0.20;0.00;;;23.70;99.90;;;;;;26041564;22;20200;-70
2022/09/08 01:59:30;;;;;;;0.20;0.00;;;23.80;99.90;;;;;;26015187;22;20191;-70
2022/09/08 02:09:35;;;;;;;0.20;0.00;;;24.20;99.90;;;;;;26042054;22;20257;-70
2022/09/08 02:19:39;;;;;;;0.20;0.00;;;24.30;99.90;;;;;;26017182;22;20184;-69
2022/09/08 02:29:45;;;;;;;0.20;0.00;;;25.00;99.90;;;;;;26040727;22;20164;-71
2022/09/08 02:39:48;;;;;;;0.20;0.00;;;25.20;99.90;;;;;;26042154;22;20195;-70
2022/09/08 02:49:54;;;;;;;0.20;0.10;;;25.30;99.90;;;;;;26015412;22;20203;-69
2022/09/08 02:59:57;;;;;;;0.20;0.00;;;25.20;99.90;;;;;;26014965;22;20191;-70
2022/09/08 03:10:03;;;;;;;0.20;0.00;;;24.90;99.90;;;;;;26042680;22;20195;-69
2022/09/08 03:20:08;;;;;;;0.20;0.00;;;25.30;99.90;;;;;;26022898;22;20187;-70
2022/09/08 03:30:16;;;;;;;0.20;0.00;;;25.30;99.90;;;;;;26049639;22;20175;-69
2022/09/08 03:40:19;;;;;;;0.20;0.10;;;25.20;99.90;;;;;;26047067;22;20191;-69
2022/09/08 03:50:25;;;;;;;0.20;0.00;;;25.10;99.90;;;;;;26045952;22;20215;-70
2022/09/08 04:00:29;;;;;;;0.20;0.00;;;24.80;99.90;;;;;;26046878;22;20184;-68
2022/09/08 04:10:34;;;;;;;0.20;0.00;;;24.70;99.90;;;;;;26019056;22;20180;-69
2022/09/08 04:20:39;;;;;;;0.20;0.00;;;24.70;99.90;;;;;;26017225;22;20188;-68
2022/09/08 04:30:44;;;;;;;0.20;0.00;;;24.70;99.90;;;;;;26046440;22;20149;-68
2022/09/08 04:40:48;;;;;;;0.20;0.00;;;24.60;99.90;;;;;;26045603;22;20184;-66
2022/09/08 04:50:54;;;;;;;0.20;0.00;;;24.50;99.90;;;;;;26044258;22;20188;-68
2022/09/08 05:01:04;;;;;;;0.20;0.00;;;24.40;99.90;;;;;;26044013;22;20180;-68
2022/09/08 05:11:10;;;;;;;0.20;0.00;;;24.40;99.90;;;;;;26042108;22;20183;-68
2022/09/08 05:21:14;;;;;;;0.20;0.00;;;24.20;99.90;;;;;;26017435;22;20188;-69
2022/09/08 05:31:22;;;;;;;0.20;0.00;;;24.20;99.90;;;;;;26040272;22;20160;-70
2022/09/08 05:41:26;;;;;;;0.20;0.00;;;24.00;99.90;;;;;;26038016;22;20180;-69
2022/09/08 05:51:32;;;;;;;0.20;0.00;;;23.90;99.90;;;;;;26004012;22;20217;-68
2022/09/08 06:01:36;;;;;;;0.20;0.00;;;23.80;99.90;;;;;;25996821;22;20195;-69
2022/09/08 06:11:41;;;;;;;0.20;0.00;;;23.80;99.90;;;;;;26036792;22;20196;-68
2022/09/08 06:21:45;;;;;;;0.20;0.00;;;24.10;99.90;;;;;;26036755;22;20277;-70
2022/09/08 06:31:54;;;;;;;0.20;0.00;;;24.50;99.90;;;;;;26039638;22;20175;-69
2022/09/08 06:42:05;;;;;;;0.20;0.00;;;24.60;99.90;;;;;;26036406;22;20191;-68
2022/09/08 06:52:19;;;;;;;0.20;0.00;;;24.70;99.90;;;;;;26044384;22;20191;-71
2022/09/08 07:02:41;;;;;;;0.20;0.00;;;25.40;99.90;;;;;;26019768;22;20179;-68
2022/09/08 07:12:56;;;;;;;0.20;0.10;;;24.80;99.90;;;;;;26045601;22;20191;-70
2022/09/08 07:23:05;;;;;;;0.20;0.00;;;24.80;99.90;;;;;;26017069;22;20190;-68
2022/09/08 07:33:19;;;;;;;0.20;0.00;;;25.50;99.90;;;;;;26043992;22;20160;-70
2022/09/08 07:43:25;;;;;;;0.20;0.10;;;26.30;99.90;;;;;;26044398;22;20196;-70
2022/09/08 07:53:58;;;;;;;0.20;0.00;;;26.60;99.90;;;;;;26043797;22;20196;-70
2022/09/08 08:04:15;;;;;;;0.20;0.10;;;26.60;99.90;;;;;;26005031;22;20175;-70
2022/09/08 08:14:30;;;;;;;0.20;0.00;;;26.70;99.90;;;;;;26015991;22;20187;-68
2022/09/08 08:24:43;;;;;;;0.20;0.10;;;27.20;99.90;;;;;;26040874;22;20144;-68
2022/09/08 08:34:53;;;;;;;0.20;0.00;;;27.00;99.90;;;;;;26015119;22;20184;-70
2022/09/08 08:45:11;;;;;;;0.20;0.10;;;27.00;99.90;;;;;;26040734;22;20152;-70
2022/09/08 08:55:41;;;;;;;0.20;0.00;;;27.10;99.90;;;;;;26039027;22;20211;-70
2022/09/08 09:05:54;;;;;;;0.20;0.00;;;27.50;99.90;;;;;;26038667;22;20184;-70
2022/09/08 09:16:20;;;;;;;0.20;0.00;;;27.40;99.90;;;;;;26011826;22;20179;-70
2022/09/08 09:26:27;;;;;;;0.20;0.00;;;27.20;99.90;;;;;;26011565;22;20168;-71
2022/09/08 09:36:55;;;;;;;0.20;0.00;;;26.70;99.90;;;;;;26037452;22;20195;-70
2022/09/08 09:47:21;;;;;;;0.20;0.00;;;26.70;99.90;;;;;;26008652;22;20167;-70
2022/09/08 09:58:16;;;;;;;0.20;0.00;;;26.70;99.90;;;;;;25885048;23;20185;-71
2022/09/08 10:09:02;;;;;;;0.20;0.00;;;26.80;99.90;;;;;;25885452;23;20180;-71
2022/09/08 10:19:45;;;;;;;0.20;0.00;;;27.00;99.90;;;;;;25879550;23;20189;-70
2022/09/08 10:30:20;;;;;;;0.20;0.00;;;27.20;99.90;;;;;;25910871;23;20161;-71
2022/09/08 10:40:37;;;;;;;0.20;0.00;;;27.80;99.90;;;;;;25908891;23;20176;-70
2022/09/08 10:50:50;;;;;;;0.20;0.00;;;28.20;99.90;;;;;;25951483;22;20199;-70
2022/09/08 11:01:08;;;;;;;0.20;0.00;;;28.20;99.90;;;;;;26038312;22;20183;-70
2022/09/08 11:11:52;;;;;;;0.20;0.00;;;28.80;99.90;;;;;;26011234;22;20191;-72
2022/09/08 11:22:33;;;;;;;0.20;0.00;;;28.40;99.90;;;;;;26037096;22;20195;-71
2022/09/08 11:32:44;;;;;;;0.20;0.00;;;28.30;99.90;;;;;;26041735;22;20163;-71
2022/09/08 11:43:05;;;;;;;0.20;0.00;;;29.00;99.90;;;;;;26016832;22;20180;-70
2022/09/08 11:53:42;;;;;;;0.20;0.00;;;29.90;99.90;;;;;;26044024;22;20203;-72
2022/09/08 12:04:26;;;;;;;0.20;0.00;;;30.80;99.90;;;;;;26043117;22;20595;-71
2022/09/08 12:14:39;;;;;;;0.20;0.00;;;31.00;99.90;;;;;;26043074;22;20164;-71
2022/09/08 12:25:18;;;;;;;0.20;0.00;;;33.50;99.90;;;;;;26016931;22;20254;-72
2022/09/08 12:35:50;;;;;;;0.20;0.00;;;32.40;99.90;;;;;;26032203;22;20191;-71
2022/09/08 12:46:24;;;;;;;0.20;0.00;;;30.50;99.90;;;;;;26005682;22;20167;-70
2022/09/08 12:56:37;;;;;;;0.20;0.00;;;29.90;99.90;;;;;;26040373;22;20695;-71
2022/09/08 13:06:58;;;;;;;0.20;0.00;;;29.60;99.90;;;;;;26042032;22;20184;-71
2022/09/08 13:17:07;;;;;;;0.20;0.00;;;31.80;99.90;;;;;;26041196;22;20184;-71
2022/09/08 13:27:26;;;;;;;0.20;0.00;;;30.00;99.90;;;;;;26042290;22;20163;-71
2022/09/08 13:37:55;;;;;;;0.20;0.00;;;29.40;99.90;;;;;;26014563;22;20447;-72
2022/09/08 13:48:24;;;;;;;0.20;0.00;;;29.40;99.90;;;;;;26040434;22;20160;-72
2022/09/08 13:58:37;;;;;;;0.20;0.00;;;28.90;99.90;;;;;;25987958;22;20191;-71
2022/09/08 14:08:49;;;;;;;0.20;0.00;;;29.00;99.90;;;;;;26013075;22;20180;-70
2022/09/08 14:19:15;;;;;;;0.20;0.00;;;28.90;99.90;;;;;;26008230;22;20179;-70
2022/09/08 14:29:53;;;;;;;0.20;0.00;;;29.10;99.90;;;;;;26036023;22;20243;-71
2022/09/08 14:40:10;;;;;;;0.20;0.00;;;29.80;99.90;;;;;;26036189;22;20199;-70
2022/09/08 14:50:27;;;;;;;0.20;0.00;;;29.60;99.90;;;;;;26010713;22;20199;-70
2022/09/08 15:00:39;;;;;;;0.20;0.00;;;30.50;99.90;;;;;;26010158;22;20199;-70
2022/09/08 15:10:57;;;;;;;0.20;0.00;;;30.80;99.90;;;;;;26040730;22;20259;-70
2022/09/08 15:21:19;;;;;;;0.20;0.00;;;30.50;99.90;;;;;;26042000;22;20191;-71
2022/09/08 15:31:35;;;;;;;0.20;0.00;;;32.20;99.90;;;;;;26014183;22;20160;-71
2022/09/08 15:41:46;;;;;;;0.20;0.00;;;30.50;99.90;;;;;;26013422;22;20184;-71
2022/09/08 15:52:08;;;;;;;0.20;0.00;;;30.10;99.90;;;;;;26041747;22;20192;-71
2022/09/08 16:02:26;;;;;;;0.20;0.00;;;30.00;99.90;;;;;;26040705;22;20176;-70
2022/09/08 16:12:39;;;;;;;0.20;0.00;;;28.90;99.90;;;;;;26041505;22;20187;-68
2022/09/08 16:22:47;;;;;;;0.20;0.00;;;29.30;99.90;;;;;;26041443;22;20187;-69
2022/09/08 16:33:02;;;;;;;0.20;0.00;;;28.90;99.90;;;;;;26015118;22;20591;-71
2022/09/08 16:43:14;;;;;;;0.20;0.10;;;28.70;99.90;;;;;;26037617;22;20191;-71
2022/09/08 16:53:26;;;;;;;0.20;0.00;;;27.90;99.90;;;;;;26038574;22;20191;-71
2022/09/08 17:03:42;;;;;;;0.20;0.00;;;27.70;99.90;;;;;;26014242;22;20271;-71
2022/09/08 17:13:48;;;;;;;0.20;0.00;;;27.80;99.90;;;;;;26038414;22;20195;-70
2022/09/08 17:24:06;;;;;;;0.20;0.00;;;27.50;99.90;;;;;;26036130;22;20180;-71
2022/09/08 17:34:37;;;;;;;0.20;0.00;;;27.50;99.90;;;;;;26009160;22;20196;-71
2022/09/08 17:44:53;;;;;;;0.20;0.00;;;27.20;99.90;;;;;;26037057;22;20199;-70
2022/09/08 17:55:14;;;;;;;0.20;0.00;;;26.80;99.90;;;;;;26038542;22;20199;-70
2022/09/08 18:05:20;;;;;;;0.20;0.00;;;26.70;99.90;;;;;;26036241;22;20243;-70
2022/09/08 18:15:28;;;;;;;0.20;0.00;;;26.60;99.90;;;;;;26036203;22;20171;-71
2022/09/08 18:25:45;;;;;;;0.20;0.00;;;26.50;99.90;;;;;;26034909;22;20188;-71
2022/09/08 18:36:05;;;;;;;0.20;0.00;;;26.40;99.90;;;;;;26010035;22;20160;-72
2022/09/08 18:46:23;;;;;;;0.20;0.00;;;26.30;99.90;;;;;;26047846;22;20174;-70
2022/09/08 18:56:32;;;;;;;0.20;0.00;;;26.30;99.90;;;;;;26049493;22;20195;-71
2022/09/08 19:06:47;;;;;;;0.20;0.00;;;26.30;99.90;;;;;;26049847;22;20180;-72
2022/09/08 19:16:55;;;;;;;0.20;0.00;;;26.20;99.90;;;;;;26023104;22;20180;-70
2022/09/08 19:27:13;;;;;;;0.20;0.00;;;26.20;99.90;;;;;;26048991;22;20167;-71
2022/09/08 19:37:25;;;;;;;0.20;0.03;;;26.10;99.90;;;;;;26023055;22;20175;-71
2022/09/08 19:47:37;;;;;;;0.20;0.00;;;26.00;99.90;;;;;;26024856;22;20189;-71
2022/09/08 19:57:54;;;;;;;0.20;0.10;;;25.50;99.90;;;;;;25918576;23;20222;-70
2022/09/08 20:07:58;;;;;;;0.20;0.00;;;25.30;99.90;;;;;;25891583;23;20237;-71
2022/09/08 20:18:17;;;;;;;0.20;0.00;;;25.10;99.90;;;;;;25891703;23;20191;-70
2022/09/08 20:28:42;;;;;;;0.20;0.00;;;25.20;99.90;;;;;;25917781;23;20153;-71
2022/09/08 20:39:31;;;;;;;0.20;0.00;;;25.20;99.90;;;;;;25917686;23;20197;-71
2022/09/08 20:49:45;;;;;;;0.20;0.10;;;25.00;99.90;;;;;;25941397;22;20195;-69
2022/09/08 20:59:55;;;;;;;0.20;0.00;;;24.40;99.90;;;;;;26041208;22;20889;-70
2022/09/08 21:10:05;;;;;;;0.20;0.00;;;24.20;99.90;;;;;;26043010;22;20179;-70
2022/09/08 21:20:19;;;;;;;0.20;0.00;;;24.10;99.90;;;;;;26042768;22;20183;-70
2022/09/08 21:30:23;;;;;;;0.20;0.10;;;23.80;99.90;;;;;;26016685;22;20166;-70
2022/09/08 21:40:34;;;;;;;0.20;0.00;;;23.60;99.90;;;;;;26043797;22;20180;-69
2022/09/08 21:50:49;;;;;;;0.20;0.00;;;23.30;99.90;;;;;;26041427;22;20192;-71
2022/09/08 22:01:00;;;;;;;0.20;0.00;;;23.10;99.90;;;;;;26014713;22;20274;-70
2022/09/08 22:11:15;;;;;;;0.20;0.00;;;23.10;99.90;;;;;;26012647;22;20186;-69
2022/09/08 22:21:30;;;;;;;0.20;0.10;;;23.40;99.90;;;;;;26013810;22;20213;-70
2022/09/08 22:31:49;;;;;;;0.20;0.00;;;23.40;99.90;;;;;;26042343;22;20168;-70
2022/09/08 22:41:58;;;;;;;0.20;0.00;;;23.70;99.90;;;;;;26042704;22;20188;-70
2022/09/08 22:52:28;;;;;;;0.20;0.00;;;23.70;99.90;;;;;;26042541;22;20203;-70
2022/09/08 23:02:37;;;;;;;0.20;0.00;;;23.90;99.90;;;;;;26041764;22;20180;-69
2022/09/08 23:12:54;;;;;;;0.20;0.00;;;24.30;99.90;;;;;;26042141;22;20184;-70
2022/09/08 23:23:16;;;;;;;0.20;0.00;;;24.50;99.90;;;;;;26043037;22;20195;-70
2022/09/08 23:33:26;;;;;;;0.20;0.00;;;24.40;99.90;;;;;;26021284;22;20587;-70
2022/09/08 23:43:36;;;;;;;0.20;0.00;;;24.50;99.90;;;;;;26048589;22;20180;-70
2022/09/08 23:53:40;;;;;;;0.20;0.00;;;24.00;99.90;;;;;;26048047;22;20195;-70
